sensor_id;sensor_type;location;lat;lon;timestamp;temperature;humidity
59977;DHT22;45837;51.076;3.578;2023-02-12T00:01:53;20.00;54.70
59977;DHT22;45837;51.076;3.578;2023-02-12T00:04:18;20.00;55.50
59977;DHT22;45837;51.076;3.578;2023-02-12T00:06:44;20.00;55.70
59977;DHT22;45837;51.076;3.578;2023-02-12T00:09:09;20.00;55.70
59977;DHT22;45837;51.076;3.578;2023-02-12T00:11:35;20.00;55.80
59977;DHT22;45837;51.076;3.578;2023-02-12T00:14:01;18.80;54.10
59977;DHT22;45837;51.076;3.578;2023-02-12T00:16:28;20.00;55.40
59977;DHT22;45837;51.076;3.578;2023-02-12T00:18:54;19.90;55.90
59977;DHT22;45837;51.076;3.578;2023-02-12T00:21:20;19.90;55.30
59977;DHT22;45837;51.076;3.578;2023-02-12T00:23:46;20.00;55.50
59977;DHT22;45837;51.076;3.578;2023-02-12T00:26:13;20.00;56.00
59977;DHT22;45837;51.076;3.578;2023-02-12T00:28:44;19.90;55.30
59977;DHT22;45837;51.076;3.578;2023-02-12T00:31:13;19.90;55.60
59977;DHT22;45837;51.076;3.578;2023-02-12T00:33:39;19.90;55.40
59977;DHT22;45837;51.076;3.578;2023-02-12T00:36:05;19.90;55.40
59977;DHT22;45837;51.076;3.578;2023-02-12T00:38:32;19.90;55.40
59977;DHT22;45837;51.076;3.578;2023-02-12T00:40:57;19.90;55.90
59977;DHT22;45837;51.076;3.578;2023-02-12T00:43:23;19.90;55.80
59977;DHT22;45837;51.076;3.578;2023-02-12T00:45:49;19.90;55.80
59977;DHT22;45837;51.076;3.578;2023-02-12T00:48:15;19.90;56.00
59977;DHT22;45837;51.076;3.578;2023-02-12T00:50:42;19.80;56.00
59977;DHT22;45837;51.076;3.578;2023-02-12T00:53:08;19.90;55.40
59977;DHT22;45837;51.076;3.578;2023-02-12T00:55:34;19.90;56.00
59977;DHT22;45837;51.076;3.578;2023-02-12T00:58:00;19.90;55.60
59977;DHT22;45837;51.076;3.578;2023-02-12T01:00:27;19.80;55.90
59977;DHT22;45837;51.076;3.578;2023-02-12T01:02:53;19.90;55.90
59977;DHT22;45837;51.076;3.578;2023-02-12T01:05:19;20.00;54.90
59977;DHT22;45837;51.076;3.578;2023-02-12T01:07:51;19.80;56.00
59977;DHT22;45837;51.076;3.578;2023-02-12T01:10:17;19.90;55.40
59977;DHT22;45837;51.076;3.578;2023-02-12T01:12:45;19.80;55.40
59977;DHT22;45837;51.076;3.578;2023-02-12T01:15:11;19.80;55.50
59977;DHT22;45837;51.076;3.578;2023-02-12T01:17:37;19.80;55.60
59977;DHT22;45837;51.076;3.578;2023-02-12T01:20:03;19.90;56.20
59977;DHT22;45837;51.076;3.578;2023-02-12T01:22:35;19.80;55.40
59977;DHT22;45837;51.076;3.578;2023-02-12T01:25:01;19.80;55.40
59977;DHT22;45837;51.076;3.578;2023-02-12T01:27:27;19.70;55.50
59977;DHT22;45837;51.076;3.578;2023-02-12T01:29:54;19.80;56.30
59977;DHT22;45837;51.076;3.578;2023-02-12T01:32:20;19.80;56.20
59977;DHT22;45837;51.076;3.578;2023-02-12T01:34:46;19.80;55.10
59977;DHT22;45837;51.076;3.578;2023-02-12T01:37:12;19.70;55.10
59977;DHT22;45837;51.076;3.578;2023-02-12T01:39:38;19.70;55.10
59977;DHT22;45837;51.076;3.578;2023-02-12T01:42:04;19.70;56.20
59977;DHT22;45837;51.076;3.578;2023-02-12T01:44:31;19.70;55.10
59977;DHT22;45837;51.076;3.578;2023-02-12T01:47:01;19.70;55.70
59977;DHT22;45837;51.076;3.578;2023-02-12T01:52:04;19.70;55.50
59977;DHT22;45837;51.076;3.578;2023-02-12T01:54:30;19.70;55.50
59977;DHT22;45837;51.076;3.578;2023-02-12T01:56:58;19.70;55.50
59977;DHT22;45837;51.076;3.578;2023-02-12T01:59:24;19.70;55.50
59977;DHT22;45837;51.076;3.578;2023-02-12T02:01:50;19.70;55.60
59977;DHT22;45837;51.076;3.578;2023-02-12T02:04:20;19.70;55.70
59977;DHT22;45837;51.076;3.578;2023-02-12T02:06:49;19.60;55.50
59977;DHT22;45837;51.076;3.578;2023-02-12T02:09:16;19.60;54.80
59977;DHT22;45837;51.076;3.578;2023-02-12T02:11:42;19.60;56.00
59977;DHT22;45837;51.076;3.578;2023-02-12T02:14:26;19.60;55.40
59977;DHT22;45837;51.076;3.578;2023-02-12T02:27:29;19.60;55.30
59977;DHT22;45837;51.076;3.578;2023-02-12T02:40:47;19.50;55.90
59977;DHT22;45837;51.076;3.578;2023-02-12T02:43:18;19.50;55.40
59977;DHT22;45837;51.076;3.578;2023-02-12T02:45:46;19.50;55.20
59977;DHT22;45837;51.076;3.578;2023-02-12T02:48:15;19.40;54.60
59977;DHT22;45837;51.076;3.578;2023-02-12T02:50:43;19.40;54.60
59977;DHT22;45837;51.076;3.578;2023-02-12T02:53:15;19.40;55.30
59977;DHT22;45837;51.076;3.578;2023-02-12T02:55:45;19.40;55.30
59977;DHT22;45837;51.076;3.578;2023-02-12T02:58:22;19.40;55.20
59977;DHT22;45837;51.076;3.578;2023-02-12T03:00:54;19.40;55.20
59977;DHT22;45837;51.076;3.578;2023-02-12T03:05:48;19.40;54.70
59977;DHT22;45837;51.076;3.578;2023-02-12T03:08:16;19.40;55.30
59977;DHT22;45837;51.076;3.578;2023-02-12T03:10:48;19.30;54.60
59977;DHT22;45837;51.076;3.578;2023-02-12T03:13:18;19.30;54.60
59977;DHT22;45837;51.076;3.578;2023-02-12T03:16:08;19.40;55.30
59977;DHT22;45837;51.076;3.578;2023-02-12T03:18:45;19.30;55.20
59977;DHT22;45837;51.076;3.578;2023-02-12T03:21:13;19.40;55.10
59977;DHT22;45837;51.076;3.578;2023-02-12T03:23:41;19.30;55.30
59977;DHT22;45837;51.076;3.578;2023-02-12T03:26:16;19.30;55.20
59977;DHT22;45837;51.076;3.578;2023-02-12T03:28:45;19.30;54.50
59977;DHT22;45837;51.076;3.578;2023-02-12T03:36:43;19.30;55.00
59977;DHT22;45837;51.076;3.578;2023-02-12T03:39:11;19.30;55.00
59977;DHT22;45837;51.076;3.578;2023-02-12T03:41:45;19.30;54.50
59977;DHT22;45837;51.076;3.578;2023-02-12T03:49:33;19.20;54.40
59977;DHT22;45837;51.076;3.578;2023-02-12T03:52:00;19.30;55.00
59977;DHT22;45837;51.076;3.578;2023-02-12T03:54:27;19.20;54.40
59977;DHT22;45837;51.076;3.578;2023-02-12T03:59:22;19.20;54.90
59977;DHT22;45837;51.076;3.578;2023-02-12T04:01:48;19.20;54.40
59977;DHT22;45837;51.076;3.578;2023-02-12T04:04:15;19.20;54.40
59977;DHT22;45837;51.076;3.578;2023-02-12T04:06:41;19.20;54.40
59977;DHT22;45837;51.076;3.578;2023-02-12T04:09:08;19.20;55.10
59977;DHT22;45837;51.076;3.578;2023-02-12T04:14:24;19.20;54.90
59977;DHT22;45837;51.076;3.578;2023-02-12T04:17:05;19.20;54.90
59977;DHT22;45837;51.076;3.578;2023-02-12T04:22:18;19.10;54.30
59977;DHT22;45837;51.076;3.578;2023-02-12T04:24:49;19.10;54.90
59977;DHT22;45837;51.076;3.578;2023-02-12T04:27:25;19.10;54.40
59977;DHT22;45837;51.076;3.578;2023-02-12T04:29:54;19.10;54.90
59977;DHT22;45837;51.076;3.578;2023-02-12T04:32:45;19.10;54.30
59977;DHT22;45837;51.076;3.578;2023-02-12T04:35:18;19.10;54.90
59977;DHT22;45837;51.076;3.578;2023-02-12T04:37:46;19.10;54.80
59977;DHT22;45837;51.076;3.578;2023-02-12T04:40:13;19.10;54.40
59977;DHT22;45837;51.076;3.578;2023-02-12T04:42:40;19.10;55.00
59977;DHT22;45837;51.076;3.578;2023-02-12T04:45:08;19.10;54.30
59977;DHT22;45837;51.076;3.578;2023-02-12T04:47:34;19.10;55.00
59977;DHT22;45837;51.076;3.578;2023-02-12T04:49:59;19.10;54.40
59977;DHT22;45837;51.076;3.578;2023-02-12T04:52:25;19.00;54.30
59977;DHT22;45837;51.076;3.578;2023-02-12T04:54:51;19.00;54.30
59977;DHT22;45837;51.076;3.578;2023-02-12T04:57:16;19.00;54.30
59977;DHT22;45837;51.076;3.578;2023-02-12T04:59:42;19.00;54.30
59977;DHT22;45837;51.076;3.578;2023-02-12T05:02:07;19.00;54.30
59977;DHT22;45837;51.076;3.578;2023-02-12T05:04:33;19.00;54.30
59977;DHT22;45837;51.076;3.578;2023-02-12T05:06:59;19.00;54.30
59977;DHT22;45837;51.076;3.578;2023-02-12T05:09:24;19.00;54.20
59977;DHT22;45837;51.076;3.578;2023-02-12T05:11:50;19.00;54.30
59977;DHT22;45837;51.076;3.578;2023-02-12T05:14:16;19.00;54.30
59977;DHT22;45837;51.076;3.578;2023-02-12T05:16:41;19.00;54.30
59977;DHT22;45837;51.076;3.578;2023-02-12T05:19:07;19.00;54.30
59977;DHT22;45837;51.076;3.578;2023-02-12T05:21:34;19.00;54.30
59977;DHT22;45837;51.076;3.578;2023-02-12T05:24:00;18.90;54.30
59977;DHT22;45837;51.076;3.578;2023-02-12T05:26:26;19.00;55.00
59977;DHT22;45837;51.076;3.578;2023-02-12T05:28:52;18.90;54.20
59977;DHT22;45837;51.076;3.578;2023-02-12T05:31:18;18.90;54.20
59977;DHT22;45837;51.076;3.578;2023-02-12T05:33:44;18.90;54.20
59977;DHT22;45837;51.076;3.578;2023-02-12T05:36:12;18.90;54.30
59977;DHT22;45837;51.076;3.578;2023-02-12T05:38:38;18.90;54.20
59977;DHT22;45837;51.076;3.578;2023-02-12T05:41:06;18.90;54.20
59977;DHT22;45837;51.076;3.578;2023-02-12T05:43:32;18.90;54.80
59977;DHT22;45837;51.076;3.578;2023-02-12T05:46:01;18.90;54.20
59977;DHT22;45837;51.076;3.578;2023-02-12T05:48:27;18.90;54.80
59977;DHT22;45837;51.076;3.578;2023-02-12T05:50:53;18.90;54.90
59977;DHT22;45837;51.076;3.578;2023-02-12T05:53:18;18.90;54.30
59977;DHT22;45837;51.076;3.578;2023-02-12T05:55:44;18.70;54.20
59977;DHT22;45837;51.076;3.578;2023-02-12T05:58:10;18.90;54.20
59977;DHT22;45837;51.076;3.578;2023-02-12T06:00:36;18.90;54.20
59977;DHT22;45837;51.076;3.578;2023-02-12T06:03:03;18.90;54.10
59977;DHT22;45837;51.076;3.578;2023-02-12T06:05:29;18.80;54.10
59977;DHT22;45837;51.076;3.578;2023-02-12T06:07:54;18.80;54.10
59977;DHT22;45837;51.076;3.578;2023-02-12T06:10:20;18.80;54.10
59977;DHT22;45837;51.076;3.578;2023-02-12T06:12:46;18.80;54.10
59977;DHT22;45837;51.076;3.578;2023-02-12T06:15:11;18.80;54.10
59977;DHT22;45837;51.076;3.578;2023-02-12T06:17:37;18.80;54.10
59977;DHT22;45837;51.076;3.578;2023-02-12T06:20:03;18.80;54.20
59977;DHT22;45837;51.076;3.578;2023-02-12T06:22:28;18.80;54.40
59977;DHT22;45837;51.076;3.578;2023-02-12T06:24:54;18.80;54.70
59977;DHT22;45837;51.076;3.578;2023-02-12T06:27:20;18.80;54.90
59977;DHT22;45837;51.076;3.578;2023-02-12T06:29:45;18.80;55.20
59977;DHT22;45837;51.076;3.578;2023-02-12T06:32:11;18.80;55.50
59977;DHT22;45837;51.076;3.578;2023-02-12T06:34:38;18.80;55.50
59977;DHT22;45837;51.076;3.578;2023-02-12T06:37:04;18.90;55.60
59977;DHT22;45837;51.076;3.578;2023-02-12T06:39:30;18.90;55.50
59977;DHT22;45837;51.076;3.578;2023-02-12T06:41:59;19.00;55.60
59977;DHT22;45837;51.076;3.578;2023-02-12T06:44:25;19.00;56.30
59977;DHT22;45837;51.076;3.578;2023-02-12T06:46:51;19.10;55.60
59977;DHT22;45837;51.076;3.578;2023-02-12T06:49:16;19.10;55.50
59977;DHT22;45837;51.076;3.578;2023-02-12T06:51:42;19.00;55.40
59977;DHT22;45837;51.076;3.578;2023-02-12T06:54:11;19.20;55.30
59977;DHT22;45837;51.076;3.578;2023-02-12T06:56:37;19.30;55.20
59977;DHT22;45837;51.076;3.578;2023-02-12T06:59:03;19.40;55.10
59977;DHT22;45837;51.076;3.578;2023-02-12T07:01:29;19.50;55.00
59977;DHT22;45837;51.076;3.578;2023-02-12T07:03:56;19.50;55.50
59977;DHT22;45837;51.076;3.578;2023-02-12T07:06:22;19.60;54.80
59977;DHT22;45837;51.076;3.578;2023-02-12T07:08:48;19.80;55.40
59977;DHT22;45837;51.076;3.578;2023-02-12T07:11:14;19.90;54.60
59977;DHT22;45837;51.076;3.578;2023-02-12T07:13:40;19.90;54.40
59977;DHT22;45837;51.076;3.578;2023-02-12T07:16:06;20.10;54.60
59977;DHT22;45837;51.076;3.578;2023-02-12T07:18:33;20.20;54.30
59977;DHT22;45837;51.076;3.578;2023-02-12T07:20:58;20.30;54.10
59977;DHT22;45837;51.076;3.578;2023-02-12T07:23:24;20.40;54.40
59977;DHT22;45837;51.076;3.578;2023-02-12T07:25:57;20.50;54.40
59977;DHT22;45837;51.076;3.578;2023-02-12T07:28:23;20.50;53.90
59977;DHT22;45837;51.076;3.578;2023-02-12T07:30:48;20.60;54.50
59977;DHT22;45837;51.076;3.578;2023-02-12T07:33:14;20.60;53.50
59977;DHT22;45837;51.076;3.578;2023-02-12T07:35:40;20.70;54.20
59977;DHT22;45837;51.076;3.578;2023-02-12T07:38:06;20.80;54.30
59977;DHT22;45837;51.076;3.578;2023-02-12T07:40:31;20.80;53.20
59977;DHT22;45837;51.076;3.578;2023-02-12T07:42:57;20.80;52.70
59977;DHT22;45837;51.076;3.578;2023-02-12T07:45:23;20.90;51.60
59977;DHT22;45837;51.076;3.578;2023-02-12T07:47:48;20.90;51.30
59977;DHT22;45837;51.076;3.578;2023-02-12T07:50:17;20.90;51.30
59977;DHT22;45837;51.076;3.578;2023-02-12T07:52:42;20.90;51.50
59977;DHT22;45837;51.076;3.578;2023-02-12T07:55:08;20.80;50.50
59977;DHT22;45837;51.076;3.578;2023-02-12T07:57:34;20.80;50.00
59977;DHT22;45837;51.076;3.578;2023-02-12T08:00:00;20.80;50.60
59977;DHT22;45837;51.076;3.578;2023-02-12T08:02:26;20.80;49.90
59977;DHT22;45837;51.076;3.578;2023-02-12T08:04:55;20.80;50.50
59977;DHT22;45837;51.076;3.578;2023-02-12T08:07:21;20.70;50.30
59977;DHT22;45837;51.076;3.578;2023-02-12T08:09:47;20.70;49.70
59977;DHT22;45837;51.076;3.578;2023-02-12T08:12:12;20.60;49.50
59977;DHT22;45837;51.076;3.578;2023-02-12T08:14:38;20.60;49.90
59977;DHT22;45837;51.076;3.578;2023-02-12T08:17:04;20.60;49.60
59977;DHT22;45837;51.076;3.578;2023-02-12T08:19:29;20.50;48.70
59977;DHT22;45837;51.076;3.578;2023-02-12T08:21:55;20.50;49.80
59977;DHT22;45837;51.076;3.578;2023-02-12T08:24:21;20.50;49.20
59977;DHT22;45837;51.076;3.578;2023-02-12T08:26:47;20.40;49.50
59977;DHT22;45837;51.076;3.578;2023-02-12T08:29:14;20.40;48.80
59977;DHT22;45837;51.076;3.578;2023-02-12T08:31:41;20.30;49.10
59977;DHT22;45837;51.076;3.578;2023-02-12T08:34:14;20.40;49.50
59977;DHT22;45837;51.076;3.578;2023-02-12T08:36:40;20.30;49.70
59977;DHT22;45837;51.076;3.578;2023-02-12T08:39:06;20.20;49.00
59977;DHT22;45837;51.076;3.578;2023-02-12T08:41:32;20.20;48.80
59977;DHT22;45837;51.076;3.578;2023-02-12T08:43:59;20.10;48.90
59977;DHT22;45837;51.076;3.578;2023-02-12T08:46:26;20.10;48.90
59977;DHT22;45837;51.076;3.578;2023-02-12T08:48:54;20.10;48.80
59977;DHT22;45837;51.076;3.578;2023-02-12T08:51:22;20.00;48.90
59977;DHT22;45837;51.076;3.578;2023-02-12T08:53:50;20.00;49.00
59977;DHT22;45837;51.076;3.578;2023-02-12T08:56:17;20.00;49.10
59977;DHT22;45837;51.076;3.578;2023-02-12T08:58:46;19.90;49.60
59977;DHT22;45837;51.076;3.578;2023-02-12T09:01:21;19.80;49.40
59977;DHT22;45837;51.076;3.578;2023-02-12T09:03:48;19.80;49.40
59977;DHT22;45837;51.076;3.578;2023-02-12T09:06:14;19.80;49.90
59977;DHT22;45837;51.076;3.578;2023-02-12T09:08:40;19.80;49.40
59977;DHT22;45837;51.076;3.578;2023-02-12T09:11:07;19.80;50.00
59977;DHT22;45837;51.076;3.578;2023-02-12T09:13:35;19.80;49.20
59977;DHT22;45837;51.076;3.578;2023-02-12T09:16:08;19.70;49.50
59977;DHT22;45837;51.076;3.578;2023-02-12T09:18:34;19.70;49.00
59977;DHT22;45837;51.076;3.578;2023-02-12T09:21:01;19.70;49.10
59977;DHT22;45837;51.076;3.578;2023-02-12T09:23:28;19.70;49.30
59977;DHT22;45837;51.076;3.578;2023-02-12T09:25:54;19.70;49.60
59977;DHT22;45837;51.076;3.578;2023-02-12T09:28:19;19.70;49.90
59977;DHT22;45837;51.076;3.578;2023-02-12T09:30:46;19.70;50.10
59977;DHT22;45837;51.076;3.578;2023-02-12T09:33:13;19.80;50.90
59977;DHT22;45837;51.076;3.578;2023-02-12T09:35:39;19.80;50.40
59977;DHT22;45837;51.076;3.578;2023-02-12T09:38:05;19.80;50.80
59977;DHT22;45837;51.076;3.578;2023-02-12T09:43:18;19.90;51.40
59977;DHT22;45837;51.076;3.578;2023-02-12T09:45:52;19.90;51.50
59977;DHT22;45837;51.076;3.578;2023-02-12T09:51:02;20.10;52.20
59977;DHT22;45837;51.076;3.578;2023-02-12T09:53:31;20.10;51.90
59977;DHT22;45837;51.076;3.578;2023-02-12T09:55:59;20.20;51.90
59977;DHT22;45837;51.076;3.578;2023-02-12T09:58:30;20.40;51.90
59977;DHT22;45837;51.076;3.578;2023-02-12T10:00:57;20.50;51.80
59977;DHT22;45837;51.076;3.578;2023-02-12T10:03:23;20.60;52.30
59977;DHT22;45837;51.076;3.578;2023-02-12T10:05:51;20.70;52.30
59977;DHT22;45837;51.076;3.578;2023-02-12T10:18:50;21.00;52.30
59977;DHT22;45837;51.076;3.578;2023-02-12T10:28:45;21.00;52.50
59977;DHT22;45837;51.076;3.578;2023-02-12T10:31:16;21.00;52.70
59977;DHT22;45837;51.076;3.578;2023-02-12T10:33:45;21.10;52.80
59977;DHT22;45837;51.076;3.578;2023-02-12T10:38:37;21.00;53.00
59977;DHT22;45837;51.076;3.578;2023-02-12T10:41:04;21.00;53.30
59977;DHT22;45837;51.076;3.578;2023-02-12T10:43:29;21.00;53.40
59977;DHT22;45837;51.076;3.578;2023-02-12T10:45:55;21.00;53.50
59977;DHT22;45837;51.076;3.578;2023-02-12T10:48:22;21.00;53.70
59977;DHT22;45837;51.076;3.578;2023-02-12T10:53:31;21.00;53.80
59977;DHT22;45837;51.076;3.578;2023-02-12T10:58:36;20.90;54.90
59977;DHT22;45837;51.076;3.578;2023-02-12T11:01:03;20.90;54.40
59977;DHT22;45837;51.076;3.578;2023-02-12T11:03:30;20.90;54.30
59977;DHT22;45837;51.076;3.578;2023-02-12T11:06:17;21.00;54.10
59977;DHT22;45837;51.076;3.578;2023-02-12T11:08:44;21.10;53.60
59977;DHT22;45837;51.076;3.578;2023-02-12T11:11:13;21.00;53.20
59977;DHT22;45837;51.076;3.578;2023-02-12T11:13:42;21.10;54.30
59977;DHT22;45837;51.076;3.578;2023-02-12T11:16:08;21.00;53.40
59977;DHT22;45837;51.076;3.578;2023-02-12T11:18:34;21.00;53.30
59977;DHT22;45837;51.076;3.578;2023-02-12T11:21:11;21.00;52.90
59977;DHT22;45837;51.076;3.578;2023-02-12T11:23:38;21.00;52.80
59977;DHT22;45837;51.076;3.578;2023-02-12T11:26:05;21.00;52.60
59977;DHT22;45837;51.076;3.578;2023-02-12T11:28:32;21.00;52.50
59977;DHT22;45837;51.076;3.578;2023-02-12T11:31:00;21.10;51.70
59977;DHT22;45837;51.076;3.578;2023-02-12T11:33:31;21.10;51.50
59977;DHT22;45837;51.076;3.578;2023-02-12T11:35:58;21.10;51.20
59977;DHT22;45837;51.076;3.578;2023-02-12T11:38:33;21.10;51.10
59977;DHT22;45837;51.076;3.578;2023-02-12T11:41:01;21.10;50.90
59977;DHT22;45837;51.076;3.578;2023-02-12T11:43:27;21.00;50.90
59977;DHT22;45837;51.076;3.578;2023-02-12T11:45:55;20.90;50.80
59977;DHT22;45837;51.076;3.578;2023-02-12T11:48:29;20.90;50.80
59977;DHT22;45837;51.076;3.578;2023-02-12T11:50:56;20.90;50.80
59977;DHT22;45837;51.076;3.578;2023-02-12T11:53:28;20.80;50.50
59977;DHT22;45837;51.076;3.578;2023-02-12T11:56:04;20.70;48.00
59977;DHT22;45837;51.076;3.578;2023-02-12T11:58:30;20.60;47.80
59977;DHT22;45837;51.076;3.578;2023-02-12T12:03:43;20.60;47.70
59977;DHT22;45837;51.076;3.578;2023-02-12T12:06:21;20.60;47.80
59977;DHT22;45837;51.076;3.578;2023-02-12T12:08:50;20.60;48.50
59977;DHT22;45837;51.076;3.578;2023-02-12T12:13:54;20.50;48.00
59977;DHT22;45837;51.076;3.578;2023-02-12T12:17:04;20.50;48.20
59977;DHT22;45837;51.076;3.578;2023-02-12T12:25:09;20.40;49.00
59977;DHT22;45837;51.076;3.578;2023-02-12T12:30:38;20.30;48.40
59977;DHT22;45837;51.076;3.578;2023-02-12T12:33:07;20.30;48.40
59977;DHT22;45837;51.076;3.578;2023-02-12T12:35:41;20.20;48.40
59977;DHT22;45837;51.076;3.578;2023-02-12T12:40:58;20.20;48.30
59977;DHT22;45837;51.076;3.578;2023-02-12T12:49:21;20.20;48.30
59977;DHT22;45837;51.076;3.578;2023-02-12T12:51:59;20.10;48.30
59977;DHT22;45837;51.076;3.578;2023-02-12T13:15:29;20.00;47.60
59977;DHT22;45837;51.076;3.578;2023-02-12T13:18:13;19.90;47.60
59977;DHT22;45837;51.076;3.578;2023-02-12T13:23:20;19.90;47.50
59977;DHT22;45837;51.076;3.578;2023-02-12T13:28:28;19.90;47.70
59977;DHT22;45837;51.076;3.578;2023-02-12T13:30:56;19.90;47.60
59977;DHT22;45837;51.076;3.578;2023-02-12T13:33:23;19.90;47.70
59977;DHT22;45837;51.076;3.578;2023-02-12T13:35:51;19.90;47.80
59977;DHT22;45837;51.076;3.578;2023-02-12T13:38:24;19.90;48.70
59977;DHT22;45837;51.076;3.578;2023-02-12T13:40:51;19.90;48.20
59977;DHT22;45837;51.076;3.578;2023-02-12T13:46:06;19.90;48.80
59977;DHT22;45837;51.076;3.578;2023-02-12T13:51:01;20.00;49.30
59977;DHT22;45837;51.076;3.578;2023-02-12T13:58:56;20.40;49.30
59977;DHT22;45837;51.076;3.578;2023-02-12T14:01:37;20.50;48.80
59977;DHT22;45837;51.076;3.578;2023-02-12T14:04:14;20.60;48.30
59977;DHT22;45837;51.076;3.578;2023-02-12T14:06:50;20.70;47.90
59977;DHT22;45837;51.076;3.578;2023-02-12T14:09:17;20.80;47.50
59977;DHT22;45837;51.076;3.578;2023-02-12T14:11:45;20.90;47.80
59977;DHT22;45837;51.076;3.578;2023-02-12T14:14:12;20.90;46.80
59977;DHT22;45837;51.076;3.578;2023-02-12T14:16:49;21.00;47.20
59977;DHT22;45837;51.076;3.578;2023-02-12T14:21:59;21.00;47.60
59977;DHT22;45837;51.076;3.578;2023-02-12T14:27:03;21.00;48.50
59977;DHT22;45837;51.076;3.578;2023-02-12T14:29:30;21.10;49.00
59977;DHT22;45837;51.076;3.578;2023-02-12T14:31:56;21.00;48.30
59977;DHT22;45837;51.076;3.578;2023-02-12T14:36:49;21.00;48.70
59977;DHT22;45837;51.076;3.578;2023-02-12T14:39:33;21.00;48.90
59977;DHT22;45837;51.076;3.578;2023-02-12T14:42:41;21.00;48.90
59977;DHT22;45837;51.076;3.578;2023-02-12T14:44:53;21.00;49.30
59977;DHT22;45837;51.076;3.578;2023-02-12T14:49:56;21.00;49.60
59977;DHT22;45837;51.076;3.578;2023-02-12T14:52:25;20.90;49.70
59977;DHT22;45837;51.076;3.578;2023-02-12T14:54:53;19.80;50.00
59977;DHT22;45837;51.076;3.578;2023-02-12T14:57:35;21.10;50.80
59977;DHT22;45837;51.076;3.578;2023-02-12T15:03:00;21.00;50.10
59977;DHT22;45837;51.076;3.578;2023-02-12T15:05:31;21.00;50.20
59977;DHT22;45837;51.076;3.578;2023-02-12T15:08:04;21.00;50.10
59977;DHT22;45837;51.076;3.578;2023-02-12T15:10:33;21.10;50.70
59977;DHT22;45837;51.076;3.578;2023-02-12T15:15:32;21.00;51.00
59977;DHT22;45837;51.076;3.578;2023-02-12T15:18:12;21.00;51.40
59977;DHT22;45837;51.076;3.578;2023-02-12T15:21:23;21.00;50.80
59977;DHT22;45837;51.076;3.578;2023-02-12T15:23:36;21.00;51.40
59977;DHT22;45837;51.076;3.578;2023-02-12T15:26:03;21.10;51.30
59977;DHT22;45837;51.076;3.578;2023-02-12T15:28:30;21.10;51.60
59977;DHT22;45837;51.076;3.578;2023-02-12T15:30:58;21.20;51.70
59977;DHT22;45837;51.076;3.578;2023-02-12T15:33:26;21.40;52.00
59977;DHT22;45837;51.076;3.578;2023-02-12T15:35:53;21.20;51.90
59977;DHT22;45837;51.076;3.578;2023-02-12T15:38:25;21.20;52.80
59977;DHT22;45837;51.076;3.578;2023-02-12T15:40:56;21.20;52.50
59977;DHT22;45837;51.076;3.578;2023-02-12T15:43:25;21.20;52.40
59977;DHT22;45837;51.076;3.578;2023-02-12T15:45:51;21.30;52.60
59977;DHT22;45837;51.076;3.578;2023-02-12T15:48:18;21.30;53.20
59977;DHT22;45837;51.076;3.578;2023-02-12T15:53:29;21.30;52.90
59977;DHT22;45837;51.076;3.578;2023-02-12T15:55:55;21.30;53.30
59977;DHT22;45837;51.076;3.578;2023-02-12T15:58:28;21.30;52.70
59977;DHT22;45837;51.076;3.578;2023-02-12T16:00:54;21.30;50.90
59977;DHT22;45837;51.076;3.578;2023-02-12T16:03:27;21.30;50.40
59977;DHT22;45837;51.076;3.578;2023-02-12T16:05:57;21.20;50.80
59977;DHT22;45837;51.076;3.578;2023-02-12T16:08:25;21.20;50.30
59977;DHT22;45837;51.076;3.578;2023-02-12T16:10:52;21.20;50.50
59977;DHT22;45837;51.076;3.578;2023-02-12T16:13:18;21.20;50.30
59977;DHT22;45837;51.076;3.578;2023-02-12T16:15:45;21.30;50.50
59977;DHT22;45837;51.076;3.578;2023-02-12T16:18:24;21.20;50.70
59977;DHT22;45837;51.076;3.578;2023-02-12T16:21:00;21.20;52.00
59977;DHT22;45837;51.076;3.578;2023-02-12T16:23:26;21.10;52.20
59977;DHT22;45837;51.076;3.578;2023-02-12T16:25:52;21.10;51.90
59977;DHT22;45837;51.076;3.578;2023-02-12T16:28:22;21.10;49.80
59977;DHT22;45837;51.076;3.578;2023-02-12T16:30:48;21.00;48.90
59977;DHT22;45837;51.076;3.578;2023-02-12T16:33:32;21.00;49.40
59977;DHT22;45837;51.076;3.578;2023-02-12T16:35:59;21.00;48.30
59977;DHT22;45837;51.076;3.578;2023-02-12T16:43:44;20.80;49.20
59977;DHT22;45837;51.076;3.578;2023-02-12T16:46:10;20.70;48.70
59977;DHT22;45837;51.076;3.578;2023-02-12T16:49:12;20.70;49.90
59977;DHT22;45837;51.076;3.578;2023-02-12T16:51:33;20.70;49.70
59977;DHT22;45837;51.076;3.578;2023-02-12T16:54:00;20.70;48.70
59977;DHT22;45837;51.076;3.578;2023-02-12T16:56:27;20.60;48.80
59977;DHT22;45837;51.076;3.578;2023-02-12T16:58:55;20.70;48.40
59977;DHT22;45837;51.076;3.578;2023-02-12T17:03:47;20.60;48.40
59977;DHT22;45837;51.076;3.578;2023-02-12T17:06:15;20.60;47.90
59977;DHT22;45837;51.076;3.578;2023-02-12T17:08:41;20.60;47.90
59977;DHT22;45837;51.076;3.578;2023-02-12T17:11:07;20.60;49.00
59977;DHT22;45837;51.076;3.578;2023-02-12T17:13:32;20.60;49.40
59977;DHT22;45837;51.076;3.578;2023-02-12T17:15:58;20.60;48.60
59977;DHT22;45837;51.076;3.578;2023-02-12T17:18:27;20.60;48.50
59977;DHT22;45837;51.076;3.578;2023-02-12T17:21:19;20.60;47.80
59977;DHT22;45837;51.076;3.578;2023-02-12T17:23:45;20.60;47.50
59977;DHT22;45837;51.076;3.578;2023-02-12T17:26:11;20.60;48.30
59977;DHT22;45837;51.076;3.578;2023-02-12T17:28:37;20.50;47.10
59977;DHT22;45837;51.076;3.578;2023-02-12T17:31:03;19.70;47.60
59977;DHT22;45837;51.076;3.578;2023-02-12T17:33:30;20.60;48.50
59977;DHT22;45837;51.076;3.578;2023-02-12T17:35:57;20.50;48.80
59977;DHT22;45837;51.076;3.578;2023-02-12T17:38:23;20.50;48.60
59977;DHT22;45837;51.076;3.578;2023-02-12T17:40:48;20.50;49.20
59977;DHT22;45837;51.076;3.578;2023-02-12T17:43:14;20.50;49.40
59977;DHT22;45837;51.076;3.578;2023-02-12T17:45:40;20.60;49.30
59977;DHT22;45837;51.076;3.578;2023-02-12T17:48:13;20.60;49.00
59977;DHT22;45837;51.076;3.578;2023-02-12T17:50:39;20.60;49.10
59977;DHT22;45837;51.076;3.578;2023-02-12T17:53:05;20.60;49.10
59977;DHT22;45837;51.076;3.578;2023-02-12T17:55:32;20.60;49.30
59977;DHT22;45837;51.076;3.578;2023-02-12T17:57:57;20.60;49.60
59977;DHT22;45837;51.076;3.578;2023-02-12T18:00:23;20.60;50.20
59977;DHT22;45837;51.076;3.578;2023-02-12T18:02:50;20.70;50.00
59977;DHT22;45837;51.076;3.578;2023-02-12T18:05:16;20.70;49.70
59977;DHT22;45837;51.076;3.578;2023-02-12T18:07:42;20.70;49.10
59977;DHT22;45837;51.076;3.578;2023-02-12T18:10:08;20.80;50.40
59977;DHT22;45837;51.076;3.578;2023-02-12T18:12:34;20.90;50.00
59977;DHT22;45837;51.076;3.578;2023-02-12T18:15:00;20.90;49.40
59977;DHT22;45837;51.076;3.578;2023-02-12T18:17:26;20.90;50.60
59977;DHT22;45837;51.076;3.578;2023-02-12T18:19:52;20.90;51.70